Time;durP1;ratioP1;P1;durP2;ratioP2;P2;SDS_P1;SDS_P2;PMS_P1;PMS_P2;Temp;Humidity;BMP_temperature;BMP_pressure;BME280_temperature;BME280_humidity;BME280_pressure;Samples;Min_cycle;Max_cycle;Signal;HPM_P1;HPM_P2
2022/06/06 00:02:06;;;;;;;13.40;7.38;;;;;;;;;;5074441;28;20031;-73
2022/06/06 00:04:32;;;;;;;10.30;7.47;;;;;;;;;;5071701;28;20037;-73
2022/06/06 00:06:59;;;;;;;22.98;7.20;;;;;;;;;;5054402;28;20042;-73
2022/06/06 00:09:26;;;;;;;10.85;8.23;;;;;;;;;;5072830;28;20047;-73
2022/06/06 00:11:55;;;;;;;15.73;9.20;;;;;;;;;;5065083;28;20508;-73
2022/06/06 00:14:21;;;;;;;12.27;7.38;;;;;;;;;;5069051;28;20024;-73
2022/06/06 00:16:47;;;;;;;13.82;8.85;;;;;;;;;;5076561;28;20107;-73
2022/06/06 00:19:13;;;;;;;12.30;9.73;;;;;;;;;;5076292;28;20120;-73
2022/06/06 00:21:40;;;;;;;11.52;8.90;;;;;;;;;;5070869;28;20032;-73
2022/06/06 00:24:06;;;;;;;12.68;8.73;;;;;;;;;;5088862;28;20111;-74
2022/06/06 00:26:33;;;;;;;13.88;8.55;;;;;;;;;;5052754;28;20128;-73
2022/06/06 00:28:59;;;;;;;18.67;8.82;;;;;;;;;;5053534;28;20085;-73
2022/06/06 00:36:58;;;;;;;11.85;7.57;;;;;;;;;;5053253;28;20095;-73
2022/06/06 00:39:25;;;;;;;16.77;10.30;;;;;;;;;;5078692;28;20105;-73
2022/06/06 00:41:53;;;;;;;15.88;8.57;;;;;;;;;;5077090;28;20028;-73
2022/06/06 00:44:29;;;;;;;17.48;9.85;;;;;;;;;;5085584;28;20036;-73
2022/06/06 00:47:05;;;;;;;18.02;9.73;;;;;;;;;;5064345;28;20086;-73
2022/06/06 00:49:36;;;;;;;17.27;9.70;;;;;;;;;;5038148;28;20032;-73
2022/06/06 00:52:04;;;;;;;14.60;9.47;;;;;;;;;;5052094;28;20103;-73
2022/06/06 00:54:31;;;;;;;13.30;9.35;;;;;;;;;;5082603;28;20028;-72
2022/06/06 00:57:02;;;;;;;25.80;9.20;;;;;;;;;;5067022;28;20373;-72
2022/06/06 00:59:31;;;;;;;19.35;8.25;;;;;;;;;;5082277;28;20111;-72
2022/06/06 01:01:57;;;;;;;13.85;7.63;;;;;;;;;;5075298;28;20040;-73
2022/06/06 01:04:24;;;;;;;13.73;7.70;;;;;;;;;;5083042;28;20485;-73
2022/06/06 01:06:50;;;;;;;12.38;6.82;;;;;;;;;;5075525;28;20067;-73
2022/06/06 01:09:18;;;;;;;8.68;5.30;;;;;;;;;;5069476;28;20059;-73
2022/06/06 01:11:49;;;;;;;10.02;5.72;;;;;;;;;;5070029;28;20384;-73
2022/06/06 01:14:17;;;;;;;12.20;5.72;;;;;;;;;;5070267;28;20379;-73
2022/06/06 01:16:49;;;;;;;12.40;6.72;;;;;;;;;;5071866;28;20025;-73
2022/06/06 01:19:21;;;;;;;16.50;6.18;;;;;;;;;;5068132;28;20541;-73
2022/06/06 01:21:47;;;;;;;10.88;6.13;;;;;;;;;;5066552;28;20108;-73
2022/06/06 01:24:23;;;;;;;19.40;7.30;;;;;;;;;;5066250;28;20166;-73
2022/06/06 01:27:01;;;;;;;7.60;5.75;;;;;;;;;;5071645;28;20391;-73
2022/06/06 01:29:28;;;;;;;16.85;6.80;;;;;;;;;;5068288;28;20044;-73
2022/06/06 01:32:00;;;;;;;15.50;5.82;;;;;;;;;;5065121;28;20020;-73
2022/06/06 01:34:34;;;;;;;12.10;6.28;;;;;;;;;;5067499;28;20032;-73
2022/06/06 01:37:00;;;;;;;12.15;5.63;;;;;;;;;;5070957;28;20020;-73
2022/06/06 01:39:27;;;;;;;9.15;5.35;;;;;;;;;;5064195;28;20040;-73
2022/06/06 01:42:12;;;;;;;9.60;5.40;;;;;;;;;;5043659;28;20077;-73
2022/06/06 01:44:41;;;;;;;11.15;4.93;;;;;;;;;;5045579;28;20024;-73
2022/06/06 01:47:13;;;;;;;10.70;4.88;;;;;;;;;;5067893;28;20029;-73
2022/06/06 01:49:39;;;;;;;11.45;6.05;;;;;;;;;;5069795;28;20067;-73
2022/06/06 01:52:07;;;;;;;7.28;4.93;;;;;;;;;;5068396;28;20120;-73
2022/06/06 01:54:33;;;;;;;11.80;5.03;;;;;;;;;;5058333;28;20024;-73
2022/06/06 01:57:01;;;;;;;13.10;5.43;;;;;;;;;;5051499;28;20036;-73
2022/06/06 01:59:27;;;;;;;7.15;4.70;;;;;;;;;;5049582;28;20056;-73
2022/06/06 02:01:53;;;;;;;12.07;5.22;;;;;;;;;;5057255;28;20501;-73
2022/06/06 02:04:19;;;;;;;12.20;5.68;;;;;;;;;;5063948;28;20101;-73
2022/06/06 02:06:46;;;;;;;10.48;5.70;;;;;;;;;;5068410;28;20036;-73
2022/06/06 02:09:12;;;;;;;9.90;5.10;;;;;;;;;;5064849;28;20028;-73
2022/06/06 02:11:38;;;;;;;8.60;4.72;;;;;;;;;;5074680;28;20048;-73
2022/06/06 02:14:04;;;;;;;10.23;5.40;;;;;;;;;;5049181;28;20028;-73
2022/06/06 02:16:30;;;;;;;11.75;5.35;;;;;;;;;;5072220;28;20032;-73
2022/06/06 02:18:57;;;;;;;9.60;6.03;;;;;;;;;;5057490;28;20037;-73
2022/06/06 02:21:23;;;;;;;7.57;4.45;;;;;;;;;;5076968;28;20089;-73
2022/06/06 02:23:49;;;;;;;7.60;5.28;;;;;;;;;;5079200;28;20040;-73
2022/06/06 02:26:16;;;;;;;7.97;5.05;;;;;;;;;;5071031;28;20033;-73
2022/06/06 02:28:42;;;;;;;10.00;5.28;;;;;;;;;;5071125;28;20119;-73
2022/06/06 02:31:08;;;;;;;12.30;6.00;;;;;;;;;;5069439;28;20032;-73
2022/06/06 02:33:35;;;;;;;12.20;5.85;;;;;;;;;;5063577;28;20033;-73
2022/06/06 02:36:01;;;;;;;10.98;5.20;;;;;;;;;;5088485;28;20036;-73
2022/06/06 02:38:28;;;;;;;7.50;4.63;;;;;;;;;;5067931;28;20578;-73
2022/06/06 02:40:54;;;;;;;7.60;5.20;;;;;;;;;;5075582;28;20036;-72
2022/06/06 02:43:21;;;;;;;9.40;5.45;;;;;;;;;;5089689;28;20033;-73
2022/06/06 02:45:50;;;;;;;10.55;5.15;;;;;;;;;;5058093;28;20032;-73
2022/06/06 02:48:16;;;;;;;8.85;5.95;;;;;;;;;;5079863;28;20024;-72
2022/06/06 02:50:43;;;;;;;15.10;7.32;;;;;;;;;;5065395;28;20041;-73
2022/06/06 02:53:10;;;;;;;12.73;6.50;;;;;;;;;;5091500;28;20518;-73
2022/06/06 02:55:36;;;;;;;12.70;6.53;;;;;;;;;;5059440;28;20033;-73
2022/06/06 02:58:02;;;;;;;9.75;6.07;;;;;;;;;;5082800;28;20051;-73
2022/06/06 03:00:30;;;;;;;13.10;6.20;;;;;;;;;;5075324;28;20150;-73
2022/06/06 03:02:56;;;;;;;8.18;5.70;;;;;;;;;;5070963;28;20035;-73
2022/06/06 03:05:25;;;;;;;9.15;5.13;;;;;;;;;;5068732;28;20027;-73
2022/06/06 03:07:59;;;;;;;13.05;6.05;;;;;;;;;;5078084;28;20029;-73
2022/06/06 03:10:31;;;;;;;7.30;4.80;;;;;;;;;;5060311;28;20065;-73
2022/06/06 03:12:58;;;;;;;6.72;5.20;;;;;;;;;;5068200;28;20047;-73
2022/06/06 03:22:08;;;;;;;11.05;7.43;;;;;;;;;;5056786;28;20071;-73
2022/06/06 03:24:53;;;;;;;7.97;5.95;;;;;;;;;;5061140;28;20116;-74
2022/06/06 03:27:26;;;;;;;7.90;5.53;;;;;;;;;;5050397;28;20029;-73
2022/06/06 03:30:07;;;;;;;7.97;5.03;;;;;;;;;;5046821;28;20064;-72
2022/06/06 03:32:40;;;;;;;7.18;4.35;;;;;;;;;;5053447;28;20032;-73
2022/06/06 03:35:05;;;;;;;;;;;;;;;;;;5056811;28;20028;-73
2022/06/06 03:38:07;;;;;;;7.57;4.45;;;;;;;;;;5071399;28;19909;-73
2022/06/06 03:40:40;;;;;;;5.50;4.80;;;;;;;;;;4989736;28;20068;-73
2022/06/06 03:43:17;;;;;;;7.70;4.65;;;;;;;;;;5036565;28;20068;-73
2022/06/06 03:45:48;;;;;;;6.22;4.03;;;;;;;;;;5044389;28;20074;-73
2022/06/06 03:48:17;;;;;;;7.18;4.20;;;;;;;;;;5059976;28;20032;-73
2022/06/06 03:51:05;;;;;;;4.88;3.88;;;14.70;99.90;;;;;;5050586;28;20036;-73
2022/06/06 03:53:39;;;;;;;5.80;3.75;;;;;;;;;;5061741;28;20099;-73
2022/06/06 03:56:42;;;;;;;5.75;3.50;;;14.70;99.90;;;;;;5054150;28;20024;-73
2022/06/06 03:59:09;;;;;;;4.15;2.97;;;;;;;;;;5043996;28;20108;-72
2022/06/06 04:01:38;;;;;;;3.92;2.92;;;;;;;;;;5034363;28;20025;-72
2022/06/06 04:04:04;;;;;;;3.40;3.10;;;;;;;;;;5053469;28;20028;-73
2022/06/06 04:06:32;;;;;;;3.55;2.97;;;;;;;;;;5051234;28;20090;-70
2022/06/06 04:08:58;;;;;;;2.38;2.03;;;;;;;;;;5046526;28;20485;-71
2022/06/06 04:11:30;;;;;;;4.90;2.10;;;;;;;;;;5041652;28;20056;-71
2022/06/06 04:14:19;;;;;;;2.20;2.00;;;14.50;99.90;;;;;;5050384;28;20094;-71
2022/06/06 04:16:58;;;;;;;3.47;2.17;;;;;;;;;;5026153;28;20026;-71
2022/06/06 04:19:36;;;;;;;3.53;2.42;;;;;;;;;;5049307;28;20036;-71
2022/06/06 04:22:05;;;;;;;3.20;2.90;;;;;;;;;;5044241;28;20580;-78
2022/06/06 04:24:57;;;;;;;5.72;4.03;;;;;;;;;;5045694;28;20477;-71
2022/06/06 04:27:37;;;;;;;7.13;5.15;;;;;;;;;;5032241;28;20073;-72
2022/06/06 04:30:09;;;;;;;7.78;4.93;;;;;;;;;;5037348;28;20044;-73
2022/06/06 04:32:57;;;;;;;8.30;5.82;;;;;;;;;;5038836;28;20037;-71
2022/06/06 04:35:35;;;;;;;9.18;6.22;;;;;;;;;;5040039;28;20393;-72
2022/06/06 04:38:01;;;;;;;8.90;5.80;;;;;;;;;;5038163;28;20069;-72
2022/06/06 04:40:39;;;;;;;10.20;5.78;;;;;;;;;;5044863;28;20071;-72
2022/06/06 04:43:15;;;;;;;10.10;6.35;;;;;;;;;;5038579;28;20500;-72
2022/06/06 04:45:44;;;;;;;7.97;6.30;;;;;;;;;;5038596;28;20060;-72
2022/06/06 04:48:10;;;;;;;10.13;6.70;;;;;;;;;;5039938;28;20036;-73
2022/06/06 04:50:39;;;;;;;12.13;8.00;;;;;;;;;;5040526;28;20026;-72
2022/06/06 04:53:10;;;;;;;15.35;8.00;;;;;;;;;;5043520;28;20038;-72
2022/06/06 04:55:40;;;;;;;14.55;8.30;;;;;;;;;;5040568;28;20021;-73
2022/06/06 04:58:07;;;;;;;13.57;8.65;;;;;;;;;;5033083;28;20060;-72
2022/06/06 05:00:37;;;;;;;17.90;10.48;;;;;;;;;;5043107;28;20028;-72
2022/06/06 05:03:04;;;;;;;18.20;10.43;;;;;;;;;;5037950;28;20095;-73
2022/06/06 05:05:36;;;;;;;18.20;10.70;;;;;;;;;;5021210;28;20029;-72
2022/06/06 05:08:24;;;;;;;18.48;11.45;;;;;;;;;;5021143;28;20156;-72
2022/06/06 05:10:50;;;;;;;20.00;11.63;;;;;;;;;;5038711;28;20489;-72
2022/06/06 05:13:36;;;;;;;20.05;11.10;;;;;;;;;;5067548;28;20032;-72
2022/06/06 05:16:02;;;;;;;14.57;8.77;;;;;;;;;;5068374;28;20476;-72
2022/06/06 05:18:31;;;;;;;19.55;10.27;;;;;;;;;;5042244;28;20134;-71
2022/06/06 05:21:02;;;;;;;14.43;8.48;;;;;;;;;;5064512;28;20503;-71
2022/06/06 05:23:43;;;;;;;20.10;8.67;;;;;;;;;;5065367;28;20430;-71
2022/06/06 05:26:12;;;;;;;17.55;8.43;;;;;;;;;;5067791;28;20032;-72
2022/06/06 05:28:46;;;;;;;15.10;7.05;;;;;;;;;;5084471;28;20063;-73
2022/06/06 05:31:27;;;;;;;14.50;8.10;;;;;;;;;;5080826;28;20483;-72
2022/06/06 05:33:56;;;;;;;14.95;8.45;;;;;;;;;;5068776;28;20033;-72
2022/06/06 05:36:48;;;;;;;12.13;7.03;;;;;;;;;;5071440;28;20098;-72
2022/06/06 05:39:37;;;;;;;14.25;8.05;;;;;;;;;;5065808;28;20044;-72
2022/06/06 05:42:10;;;;;;;14.90;8.05;;;;;;;;;;5041109;28;20173;-72
2022/06/06 05:44:51;;;;;;;21.10;8.57;;;;;;;;;;5060041;28;20063;-72
2022/06/06 05:47:20;;;;;;;22.45;9.95;;;;;;;;;;5069153;28;20108;-72
2022/06/06 05:49:52;;;;;;;17.20;9.05;;;;;;;;;;5068516;28;20033;-72
2022/06/06 05:52:18;;;;;;;15.60;8.90;;;;;;;;;;5060953;28;20085;-72
2022/06/06 05:54:53;;;;;;;18.38;8.50;;;;;;;;;;5069158;28;20029;-72
2022/06/06 05:57:32;;;;;;;19.10;8.68;;;;;;;;;;5091405;28;20042;-72
2022/06/06 05:59:58;;;;;;;16.50;8.27;;;;;;;;;;5081464;28;20025;-72
2022/06/06 06:02:42;;;;;;;16.10;8.35;;;14.00;99.90;;;;;;5058770;28;20036;-72
2022/06/06 06:05:08;;;;;;;17.10;8.25;;;;;;;;;;5081883;28;20589;-72
2022/06/06 06:07:40;;;;;;;16.95;7.63;;;;;;;;;;5057433;28;20095;-72
2022/06/06 06:10:11;;;;;;;9.45;6.30;;;;;;;;;;5053251;28;20044;-72
2022/06/06 06:12:43;;;;;;;10.98;5.30;;;;;;;;;;5071986;28;20047;-72
2022/06/06 06:15:18;;;;;;;9.07;5.00;;;;;;;;;;5073197;28;20037;-72
2022/06/06 06:17:45;;;;;;;7.88;5.40;;;;;;;;;;5063013;28;20672;-72
2022/06/06 06:20:13;;;;;;;5.40;3.30;;;;;;;;;;5054116;28;20373;-72
2022/06/06 06:22:41;;;;;;;6.97;3.22;;;;;;;;;;5076621;28;20112;-72
2022/06/06 06:25:09;;;;;;;5.20;3.72;;;;;;;;;;5052098;28;20043;-72
2022/06/06 06:27:35;;;;;;;5.43;2.85;;;;;;;;;;5069044;28;20042;-72
2022/06/06 06:30:02;;;;;;;5.60;2.53;;;;;;;;;;5055678;28;20060;-73
2022/06/06 06:32:28;;;;;;;5.72;2.95;;;;;;;;;;5088558;28;20475;-72
2022/06/06 06:35:03;;;;;;;6.57;2.97;;;;;;;;;;5070268;28;20033;-72
2022/06/06 06:37:29;;;;;;;6.97;3.03;;;;;;;;;;5088966;28;20495;-72
2022/06/06 06:40:24;;;;;;;6.88;3.20;;;14.00;99.90;;;;;;5063366;28;20071;-72
2022/06/06 06:42:50;;;;;;;6.13;2.65;;;;;;;;;;5063613;28;20034;-72
2022/06/06 06:45:23;;;;;;;8.00;3.13;;;;;;;;;;5072429;28;20383;-72
2022/06/06 06:47:57;;;;;;;5.57;2.65;;;;;;;;;;5089658;28;20036;-72
2022/06/06 06:50:27;;;;;;;6.57;2.90;;;;;;;;;;5082625;28;20028;-72
2022/06/06 06:52:53;;;;;;;9.68;2.95;;;;;;;;;;5085757;28;20043;-70
2022/06/06 06:55:19;;;;;;;7.50;2.55;;;;;;;;;;5087370;28;20016;-71
2022/06/06 06:57:45;;;;;;;9.00;2.95;;;;;;;;;;5063951;28;20353;-71
2022/06/06 07:00:14;;;;;;;6.63;2.80;;;;;;;;;;5071379;28;20035;-72
2022/06/06 07:09:09;;;;;;;6.13;2.30;;;;;;;;;;5060247;28;20044;-73
2022/06/06 07:11:36;;;;;;;2.80;2.22;;;;;;;;;;5067774;28;21658;-72
2022/06/06 07:14:02;;;;;;;4.93;2.45;;;;;;;;;;5065434;28;20121;-72
2022/06/06 07:16:29;;;;;;;6.32;2.42;;;;;;;;;;5065516;28;20472;-72
2022/06/06 07:19:12;;;;;;;5.18;2.72;;;;;;;;;;5069442;28;20054;-72
2022/06/06 07:21:39;;;;;;;6.85;1.77;;;;;;;;;;5063198;28;20024;-72
2022/06/06 07:24:07;;;;;;;6.13;2.33;;;;;;;;;;5060119;28;20066;-72
2022/06/06 07:26:37;;;;;;;5.50;2.13;;;;;;;;;;5071633;28;20387;-72
2022/06/06 07:29:05;;;;;;;6.13;2.28;;;;;;;;;;5065474;28;20068;-70
2022/06/06 07:31:36;;;;;;;6.35;3.08;;;;;;;;;;5068848;28;20064;-70
2022/06/06 07:34:30;;;;;;;10.38;6.30;;;;;;;;;;5064311;28;20048;-77
2022/06/06 07:37:23;;;;;;;12.73;2.70;;;;;;;;;;5062474;28;20032;-76
2022/06/06 07:39:55;;;;;;;6.43;2.38;;;;;;;;;;5003775;28;20044;-73
2022/06/06 07:43:00;;;;;;;8.57;2.40;;;15.90;99.90;;;;;;5070506;28;20028;-73
2022/06/06 07:45:45;;;;;;;6.07;3.50;;;;;;;;;;5070467;28;20033;-74
2022/06/06 07:48:20;;;;;;;4.20;2.30;;;;;;;;;;5075589;28;20376;-74
2022/06/06 07:50:53;;;;;;;4.72;2.30;;;;;;;;;;5064663;28;20036;-72
2022/06/06 07:53:25;;;;;;;7.25;3.05;;;;;;;;;;5075469;28;20056;-71
2022/06/06 07:56:18;;;;;;;18.05;10.43;;;16.50;99.90;;;;;;5072102;28;20064;-72
2022/06/06 07:58:55;;;;;;;6.32;2.00;;;;;;;;;;5072409;28;20108;-73
2022/06/06 08:01:29;;;;;;;4.03;2.47;;;;;;;;;;5066961;28;20526;-73
2022/06/06 08:04:21;;;;;;;5.25;2.15;;;;;;;;;;5078905;28;20106;-73
2022/06/06 08:07:06;;;;;;;4.60;2.58;;;;;;;;;;5075350;28;20162;-73
2022/06/06 08:09:42;;;;;;;11.63;3.30;;;;;;;;;;5085854;28;20028;-73
2022/06/06 08:12:18;;;;;;;4.93;3.13;;;;;;;;;;5069151;28;20064;-73
2022/06/06 08:15:07;;;;;;;8.98;2.50;;;;;;;;;;5067531;28;20021;-73
2022/06/06 08:17:45;;;;;;;8.02;2.75;;;;;;;;;;5063466;28;20366;-73
2022/06/06 08:20:28;;;;;;;10.07;3.17;;;;;;;;;;5063525;28;20029;-73
2022/06/06 08:22:56;;;;;;;7.82;2.00;;;;;;;;;;5060014;28;20049;-73
2022/06/06 08:25:23;;;;;;;5.18;2.20;;;;;;;;;;5066658;28;20076;-73
2022/06/06 08:27:51;;;;;;;7.40;2.53;;;;;;;;;;5075458;28;20391;-72
2022/06/06 08:30:17;;;;;;;12.32;4.90;;;;;;;;;;5049322;28;20507;-73
2022/06/06 08:32:43;;;;;;;9.50;4.03;;;;;;;;;;5064208;28;20447;-72
2022/06/06 08:35:09;;;;;;;27.15;4.07;;;;;;;;;;5064542;28;20028;-73
2022/06/06 08:37:35;;;;;;;8.40;4.10;;;;;;;;;;5052050;28;20028;-73
2022/06/06 08:40:14;;;;;;;6.38;3.67;;;;;;;;;;5058942;28;20071;-73
2022/06/06 08:42:50;;;;;;;8.32;3.65;;;;;;;;;;5068625;28;20467;-73
2022/06/06 08:45:24;;;;;;;6.82;3.45;;;;;;;;;;5061532;28;20032;-73
2022/06/06 08:48:02;;;;;;;10.20;4.45;;;;;;;;;;5074536;28;20051;-73
2022/06/06 08:50:47;;;;;;;6.85;4.00;;;;;;;;;;5064640;28;20464;-73
2022/06/06 08:53:32;;;;;;;11.25;4.53;;;;;;;;;;5058745;28;20025;-73
2022/06/06 08:56:04;;;;;;;8.43;3.78;;;;;;;;;;5064408;28;20031;-73
2022/06/06 08:58:36;;;;;;;6.18;3.70;;;;;;;;;;5070153;28;20064;-72
2022/06/06 09:01:02;;;;;;;10.98;3.28;;;;;;;;;;5062510;28;20037;-72
2022/06/06 09:03:31;;;;;;;9.70;4.25;;;;;;;;;;5045057;28;20055;-72
2022/06/06 09:05:58;;;;;;;5.07;2.50;;;;;;;;;;5063172;28;20546;-72
2022/06/06 09:08:24;;;;;;;4.93;2.75;;;;;;;;;;5064410;28;20511;-73
2022/06/06 09:10:56;;;;;;;6.97;3.20;;;;;;;;;;5066989;28;20068;-73
2022/06/06 09:14:05;;;;;;;10.02;3.33;;;16.70;99.90;;;;;;5049943;28;20036;-72
2022/06/06 09:16:46;;;;;;;8.70;3.13;;;;;;;;;;5049838;28;20039;-73
2022/06/06 09:19:31;;;;;;;6.75;2.80;;;;;;;;;;5061638;28;20375;-73
2022/06/06 09:22:09;;;;;;;5.53;2.47;;;;;;;;;;5060100;28;20484;-73
2022/06/06 09:24:35;;;;;;;8.63;2.72;;;;;;;;;;5064606;28;20052;-73
2022/06/06 09:27:31;;;;;;;4.55;2.60;;;;;;;;;;5062241;28;20024;-73
2022/06/06 09:30:17;;;;;;;5.53;2.53;;;;;;;;;;5063626;28;20039;-73
2022/06/06 09:32:46;;;;;;;11.25;2.13;;;;;;;;;;5052232;28;20106;-73
2022/06/06 09:35:31;;;;;;;8.32;2.85;;;;;;;;;;5067489;28;20033;-73
2022/06/06 09:38:23;;;;;;;12.48;2.03;;;;;;;;;;5048648;28;20024;-74
2022/06/06 09:40:49;;;;;;;;;;;;;;;;;;5036864;28;21727;-72
2022/06/06 09:43:26;;;;;;;7.68;1.95;;;;;;;;;;5065292;28;19908;-73
2022/06/06 09:46:11;;;;;;;5.55;1.60;;;;;;;;;;5053149;28;20048;-73
2022/06/06 09:48:55;;;;;;;7.18;1.50;;;;;;;;;;5059009;28;20080;-73
2022/06/06 09:51:48;;;;;;;6.50;1.65;;;;;;;;;;5066742;28;20028;-72
2022/06/06 10:00:43;;;;;;;8.85;2.95;;;;;;;;;;5056114;28;20546;-70
2022/06/06 10:03:18;;;;;;;9.75;1.95;;;;;;;;;;5057254;28;20041;-70
2022/06/06 10:05:44;;;;;;;6.03;1.20;;;;;;;;;;5057956;28;20034;-72
2022/06/06 10:08:26;;;;;;;12.98;1.77;;;;;;;;;;5068007;28;20721;-72
2022/06/06 10:11:19;;;;;;;6.38;1.10;;;;;;;;;;5063286;28;20031;-73
2022/06/06 10:13:48;;;;;;;4.53;1.13;;;;;;;;;;5048296;28;20048;-74
2022/06/06 10:17:04;;;;;;;7.72;1.10;;;20.60;99.90;;;;;;5068543;28;20090;-72
2022/06/06 10:19:30;;;;;;;9.30;2.45;;;;;;;;;;4991679;28;20041;-72
2022/06/06 10:21:56;;;;;;;12.77;1.10;;;;;;;;;;4996017;28;20026;-72
2022/06/06 10:24:30;;;;;;;12.55;1.27;;;20.50;99.90;;;;;;5027401;28;20068;-71
2022/06/06 10:27:08;;;;;;;12.05;1.35;;;;;;;;;;5068509;28;20162;-72
2022/06/06 10:32:38;;;;;;;5.90;1.20;;;;;;;;;;5063727;28;20031;-72
2022/06/06 10:35:14;;;;;;;4.60;1.15;;;;;;;;;;5066545;28;20498;-72
2022/06/06 10:38:03;;;;;;;8.43;0.95;;;;;;;;;;5071714;28;20027;-72
2022/06/06 10:40:44;;;;;;;7.18;0.82;;;;;;;;;;5072271;28;20037;-71
2022/06/06 10:43:19;;;;;;;2.92;0.88;;;;;;;;;;5069186;28;20064;-70
2022/06/06 10:45:56;;;;;;;7.65;1.23;;;20.20;99.90;;;;;;5052151;28;20037;-71
2022/06/06 10:48:26;;;;;;;3.72;0.88;;;;;;;;;;5078308;28;20115;-71
2022/06/06 10:54:15;;;;;;;8.90;0.93;;;;;;;;;;5073350;28;20039;-73
2022/06/06 10:57:02;;;;;;;4.88;0.70;;;;;;;;;;5085082;28;20059;-72
2022/06/06 10:59:28;;;;;;;4.55;0.93;;;;;;;;;;5063993;28;20387;-73
2022/06/06 11:01:54;;;;;;;6.93;1.13;;;;;;;;;;5064877;28;20028;-73
2022/06/06 11:04:39;;;;;;;5.15;1.05;;;;;;;;;;5085479;28;20099;-71
2022/06/06 11:07:05;;;;;;;6.38;1.13;;;;;;;;;;5067774;28;20031;-71
2022/06/06 11:09:40;;;;;;;7.60;1.83;;;;;;;;;;5070872;28;20028;-72
2022/06/06 11:12:18;;;;;;;5.43;0.90;;;;;;;;;;5074004;28;20084;-72
2022/06/06 11:14:45;;;;;;;13.65;1.88;;;20.60;99.90;;;;;;5042647;28;20036;-71
2022/06/06 11:17:14;;;;;;;9.27;2.03;;;;;;;;;;5059604;28;20036;-71
2022/06/06 11:19:58;;;;;;;9.20;2.30;;;;;;;;;;5057018;28;20028;-71
2022/06/06 11:22:33;;;;;;;6.97;0.95;;;;;;;;;;5066169;28;20035;-71
2022/06/06 11:25:05;;;;;;;5.82;1.00;;;;;;;;;;5073322;28;20056;-70
2022/06/06 11:27:50;;;;;;;;;;;19.80;99.90;;;;;;5085289;28;20498;-71
2022/06/06 11:30:26;;;;;;;9.20;1.10;;;;;;;;;;5071951;28;20354;-72
2022/06/06 11:32:52;;;;;;;5.07;1.30;;;;;;;;;;5078143;28;20035;-72
2022/06/06 11:35:21;;;;;;;5.10;0.90;;;;;;;;;;5079360;28;20020;-72
2022/06/06 11:37:49;;;;;;;2.65;0.80;;;;;;;;;;5067191;28;20999;-72
2022/06/06 11:40:35;;;;;;;5.43;0.77;;;;;;;;;;5065024;28;20157;-72
2022/06/06 11:43:04;;;;;;;4.90;0.90;;;;;;;;;;5071341;28;20098;-72
2022/06/06 11:45:30;;;;;;;4.15;1.60;;;;;;;;;;5072481;28;20029;-73
2022/06/06 11:47:59;;;;;;;6.97;1.98;;;;;;;;;;5077529;28;20028;-73
2022/06/06 11:50:31;;;;;;;5.00;1.10;;;;;;;;;;5079568;28;20064;-73
2022/06/06 11:52:57;;;;;;;;;;;19.60;99.90;;;;;;5071325;28;20427;-73
2022/06/06 11:55:46;;;;;;;3.50;0.65;;;19.70;99.90;;;;;;5068567;28;20571;-72
2022/06/06 11:58:56;;;;;;;9.55;1.27;;;19.60;99.90;;;;;;5070656;28;20024;-71
2022/06/06 12:01:49;;;;;;;6.82;1.10;;;;;;;;;;5073309;28;20082;-72
2022/06/06 12:04:42;;;;;;;8.73;1.10;;;19.10;99.90;;;;;;5082355;28;20047;-72
2022/06/06 12:07:11;;;;;;;4.30;1.00;;;;;;;;;;5088579;28;20028;-72
2022/06/06 12:09:37;;;;;;;6.75;1.73;;;;;;;;;;5064232;28;20035;-72
2022/06/06 12:12:12;;;;;;;9.45;1.60;;;;;;;;;;5070354;28;20061;-72
2022/06/06 12:14:43;;;;;;;6.47;1.15;;;;;;;;;;5076441;28;20036;-72
2022/06/06 12:17:16;;;;;;;9.35;1.25;;;;;;;;;;5074582;28;20028;-72
2022/06/06 12:19:42;;;;;;;7.40;1.23;;;;;;;;;;5069978;28;20036;-73
2022/06/06 12:22:11;;;;;;;7.95;1.70;;;;;;;;;;5061600;28;20028;-72
2022/06/06 12:24:42;;;;;;;7.15;1.55;;;;;;;;;;5081058;28;20041;-72
2022/06/06 12:27:25;;;;;;;8.13;1.30;;;;;;;;;;5064950;28;20020;-72
2022/06/06 12:29:57;;;;;;;15.60;2.33;;;;;;;;;;5054614;28;20065;-71
2022/06/06 12:32:41;;;;;;;;;;;19.10;99.90;;;;;;5063035;28;20494;-70
2022/06/06 12:35:40;;;;;;;4.15;1.00;;;18.70;99.90;;;;;;5069912;28;19947;-72
2022/06/06 12:38:23;;;;;;;7.13;2.05;;;;;;;;;;5064640;28;20028;-71
2022/06/06 12:40:58;;;;;;;4.70;1.20;;;18.90;99.90;;;;;;5057292;28;20041;-71
2022/06/06 12:43:45;;;;;;;6.30;1.40;;;;;;;;;;5056076;28;20037;-71
2022/06/06 12:46:11;;;;;;;9.13;1.13;;;;;;;;;;5072842;28;20028;-72
2022/06/06 12:48:56;;;;;;;4.60;1.38;;;;;;;;;;5072497;28;20024;-72
2022/06/06 12:51:41;;;;;;;6.22;1.45;;;;;;;;;;5093278;28;20079;-73
2022/06/06 12:54:07;;;;;;;4.88;1.10;;;;;;;;;;5076705;28;20075;-73
2022/06/06 12:56:39;;;;;;;4.47;1.10;;;;;;;;;;5089369;28;20040;-73
2022/06/06 12:59:42;;;;;;;4.97;1.25;;;18.80;99.90;;;;;;5071247;28;20025;-73
2022/06/06 13:02:21;;;;;;;24.75;13.27;;;;;;;;;;5068422;28;20494;-70
2022/06/06 13:04:58;;;;;;;5.28;1.67;;;;;;;;;;5067810;28;20051;-70
2022/06/06 13:07:24;;;;;;;2.78;0.70;;;;;;;;;;5067469;28;20032;-72
2022/06/06 13:10:19;;;;;;;3.75;0.95;;;;;;;;;;5077566;28;20108;-72
2022/06/06 13:12:45;;;;;;;3.28;0.90;;;;;;;;;;4981927;28;20113;-72
2022/06/06 13:15:31;;;;;;;1.63;0.70;;;;;;;;;;5062876;28;20129;-72
2022/06/06 13:18:15;;;;;;;5.32;2.13;;;;;;;;;;5066224;28;20108;-71
2022/06/06 13:20:49;;;;;;;3.50;1.20;;;;;;;;;;5069283;28;20136;-72
2022/06/06 13:23:31;;;;;;;4.75;1.38;;;;;;;;;;5067570;28;20594;-72
2022/06/06 13:26:03;;;;;;;;;;;17.20;99.90;;;;;;5057969;28;20047;-72
2022/06/06 13:28:32;;;;;;;4.03;1.50;;;17.30;99.90;;;;;;5063792;28;19920;-72
2022/06/06 13:31:06;;;;;;;3.53;1.40;;;;;;;;;;5073519;28;20131;-71
2022/06/06 13:33:47;;;;;;;3.50;1.30;;;;;;;;;;5056072;28;20110;-71
2022/06/06 13:36:16;;;;;;;4.88;1.25;;;;;;;;;;5071670;28;20028;-71
2022/06/06 13:38:54;;;;;;;3.55;1.80;;;;;;;;;;5049768;28;20044;-72
2022/06/06 13:41:34;;;;;;;7.22;2.45;;;;;;;;;;5066861;28;20506;-72
2022/06/06 13:44:08;;;;;;;3.58;1.40;;;;;;;;;;5071311;28;20032;-72
2022/06/06 13:46:34;;;;;;;5.00;1.40;;;;;;;;;;5055997;28;20040;-71
2022/06/06 13:49:07;;;;;;;5.03;1.25;;;;;;;;;;5059956;28;20029;-72
2022/06/06 13:52:20;;;;;;;3.55;1.27;;;16.20;99.90;;;;;;5082394;28;20043;-72
2022/06/06 13:54:47;;;;;;;3.88;0.90;;;;;;;;;;4991518;28;20050;-72
2022/06/06 13:57:25;;;;;;;3.35;1.15;;;;;;;;;;5075201;28;20021;-72
2022/06/06 13:59:51;;;;;;;1.77;1.02;;;;;;;;;;5052953;28;20476;-71
2022/06/06 14:02:31;;;;;;;2.90;0.82;;;;;;;;;;5051829;28;20031;-72
2022/06/06 14:05:18;;;;;;;1.88;0.90;;;;;;;;;;5078381;28;20044;-72
2022/06/06 14:07:58;;;;;;;3.95;1.42;;;;;;;;;;5075672;28;20040;-71
2022/06/06 14:10:34;;;;;;;2.38;0.90;;;;;;;;;;5073377;28;20434;-71
2022/06/06 14:13:07;;;;;;;2.75;1.27;;;;;;;;;;5070409;28;20060;-72
2022/06/06 14:15:41;;;;;;;2.65;1.02;;;;;;;;;;5073256;28;20028;-72
2022/06/06 14:18:08;;;;;;;3.17;0.90;;;;;;;;;;5076336;28;20116;-71
2022/06/06 14:20:36;;;;;;;3.88;1.02;;;;;;;;;;5069212;28;20093;-72
2022/06/06 14:23:21;;;;;;;5.35;1.52;;;;;;;;;;5081812;28;20035;-72
2022/06/06 14:25:49;;;;;;;2.60;1.17;;;;;;;;;;5064679;28;20060;-73
2022/06/06 14:28:18;;;;;;;2.83;1.33;;;;;;;;;;5070823;28;20055;-73
2022/06/06 14:30:44;;;;;;;6.68;1.50;;;;;;;;;;5062452;28;20041;-74
2022/06/06 14:33:21;;;;;;;5.68;1.08;;;;;;;;;;5069445;28;20055;-74
2022/06/06 14:35:47;;;;;;;2.08;0.75;;;;;;;;;;5070380;28;20025;-74
2022/06/06 14:38:18;;;;;;;2.67;0.88;;;15.30;99.90;;;;;;5094770;28;20376;-74
2022/06/06 14:40:49;;;;;;;1.15;0.25;;;;;;;;;;5076590;28;20032;-74
2022/06/06 14:43:15;;;;;;;2.97;0.73;;;;;;;;;;5079921;28;20110;-74
2022/06/06 14:45:44;;;;;;;1.40;0.50;;;15.00;99.90;;;;;;5072473;28;20029;-73
2022/06/06 14:48:13;;;;;;;0.85;0.20;;;;;;;;;;5079851;28;20158;-73
2022/06/06 14:50:52;;;;;;;1.75;0.30;;;;;;;;;;5075569;28;20051;-74
2022/06/06 14:53:21;;;;;;;3.72;0.20;;;;;;;;;;5086968;28;20476;-74
2022/06/06 14:55:59;;;;;;;0.68;0.30;;;;;;;;;;5073739;28;20032;-74
2022/06/06 14:58:26;;;;;;;1.08;0.40;;;;;;;;;;5068116;28;20082;-74
2022/06/06 15:00:55;;;;;;;1.60;0.40;;;;;;;;;;5073965;28;20509;-74
2022/06/06 15:03:33;;;;;;;1.98;0.50;;;;;;;;;;5073319;28;20028;-74
2022/06/06 15:06:08;;;;;;;1.92;0.55;;;;;;;;;;5071650;28;20099;-74
2022/06/06 15:08:37;;;;;;;2.35;0.60;;;;;;;;;;5070194;28;20036;-74
2022/06/06 15:11:07;;;;;;;0.68;0.30;;;;;;;;;;5074308;28;20036;-75
2022/06/06 15:13:35;;;;;;;1.60;0.90;;;;;;;;;;5088056;28;20024;-74
2022/06/06 15:16:03;;;;;;;1.73;0.47;;;;;;;;;;5063324;28;20029;-74
2022/06/06 15:18:36;;;;;;;1.00;0.32;;;15.00;99.90;;;;;;5068091;28;20048;-74
2022/06/06 15:21:03;;;;;;;0.65;0.32;;;;;;;;;;5073528;28;20112;-75
2022/06/06 15:23:40;;;;;;;3.28;0.77;;;;;;;;;;5083652;28;20031;-74
2022/06/06 15:26:43;;;;;;;1.35;0.70;;;14.60;99.90;;;;;;5075706;28;20024;-74
2022/06/06 15:29:24;;;;;;;2.10;0.50;;;;;;;;;;5062442;28;20389;-74
2022/06/06 15:32:05;;;;;;;1.15;0.40;;;;;;;;;;5047328;28;20075;-74
2022/06/06 15:34:49;;;;;;;2.53;0.90;;;;;;;;;;5075261;28;20033;-74
2022/06/06 15:37:18;;;;;;;5.05;1.98;;;;;;;;;;5062383;28;20384;-74
2022/06/06 15:39:50;;;;;;;1.30;0.63;;;;;;;;;;5088006;28;20059;-74
2022/06/06 15:42:16;;;;;;;4.03;0.50;;;;;;;;;;5068648;28;20059;-74